createdAt,value
2018-08-08T00:00:26.736Z,5.60
2018-08-08T00:01:26.836Z,5.60
2018-08-08T00:02:26.815Z,5.60
2018-08-08T00:03:26.818Z,5.60
2018-08-08T00:04:26.837Z,5.60
2018-08-08T00:05:26.756Z,5.60
2018-08-08T00:06:26.797Z,5.60
2018-08-08T00:07:26.821Z,5.60
2018-08-08T00:08:26.787Z,5.60
2018-08-08T00:09:26.852Z,6.50
2018-08-08T00:10:26.792Z,6.50
2018-08-08T00:11:26.739Z,6.50
2018-08-08T00:12:26.721Z,6.50
2018-08-08T00:13:26.798Z,6.50
2018-08-08T00:14:26.831Z,6.50
2018-08-08T00:15:26.818Z,6.50
2018-08-08T00:16:26.747Z,6.50
2018-08-08T00:17:26.827Z,6.50
2018-08-08T00:18:26.730Z,6.50
2018-08-08T00:19:26.728Z,5.90
2018-08-08T00:20:26.756Z,5.90
2018-08-08T00:21:26.800Z,5.90
2018-08-08T00:22:26.748Z,5.90
2018-08-08T00:23:26.829Z,5.90
2018-08-08T00:24:26.859Z,5.90
2018-08-08T00:25:26.829Z,5.90
2018-08-08T00:26:26.811Z,5.90
2018-08-08T00:27:26.730Z,5.90
2018-08-08T00:28:26.739Z,5.90
2018-08-08T00:29:26.863Z,6.50
2018-08-08T00:30:26.795Z,6.50
2018-08-08T00:31:26.777Z,6.50
2018-08-08T00:32:26.855Z,6.50
2018-08-08T00:33:26.856Z,6.50
2018-08-08T00:34:26.858Z,6.50
2018-08-08T00:35:26.900Z,6.50
2018-08-08T00:36:26.807Z,6.50
2018-08-08T00:37:26.808Z,6.50
2018-08-08T00:38:26.841Z,6.50
2018-08-08T00:39:26.825Z,6.30
2018-08-08T00:40:26.873Z,6.30
2018-08-08T00:41:26.807Z,6.30
2018-08-08T00:42:26.878Z,6.30
2018-08-08T00:43:26.822Z,6.30
2018-08-08T00:44:26.905Z,6.30
2018-08-08T00:45:26.748Z,6.30
2018-08-08T00:46:26.815Z,6.30
2018-08-08T00:47:26.750Z,6.30
2018-08-08T00:48:26.788Z,6.30
2018-08-08T00:49:26.867Z,6.20
2018-08-08T00:50:26.851Z,6.20
2018-08-08T00:51:26.847Z,6.20
2018-08-08T00:52:26.871Z,6.20
2018-08-08T00:53:26.853Z,6.20
2018-08-08T00:54:26.819Z,6.20
2018-08-08T00:55:26.851Z,6.20
2018-08-08T00:56:26.892Z,6.20
2018-08-08T00:57:26.827Z,6.20
2018-08-08T00:58:26.827Z,6.20
2018-08-08T00:59:26.860Z,6.20
2018-08-08T01:00:26.861Z,6.20
2018-08-08T01:01:26.781Z,6.20
2018-08-08T01:02:26.795Z,6.20
2018-08-08T01:03:26.796Z,6.20
2018-08-08T01:04:26.796Z,6.20
2018-08-08T01:05:26.891Z,6.20
2018-08-08T01:06:26.839Z,6.20
2018-08-08T01:07:26.896Z,6.20
2018-08-08T01:08:26.891Z,6.20
2018-08-08T01:09:26.864Z,6.70
2018-08-08T01:10:26.784Z,6.70
2018-08-08T01:11:26.844Z,6.70
2018-08-08T01:12:26.837Z,6.70
2018-08-08T01:13:26.848Z,6.70
2018-08-08T01:14:26.843Z,6.70
2018-08-08T01:15:26.996Z,6.70
2018-08-08T01:16:26.890Z,6.70
2018-08-08T01:17:26.773Z,6.70
2018-08-08T01:18:26.903Z,6.70
2018-08-08T01:19:26.863Z,6.90
2018-08-08T01:20:26.866Z,6.90
2018-08-08T01:21:26.863Z,6.90
2018-08-08T01:22:26.814Z,6.90
2018-08-08T01:23:26.778Z,6.90
2018-08-08T01:24:26.819Z,6.90
2018-08-08T01:25:26.867Z,6.90
2018-08-08T01:26:26.862Z,6.90
2018-08-08T01:27:26.871Z,6.90
2018-08-08T01:28:26.869Z,6.90
2018-08-08T01:29:26.903Z,5.80
2018-08-08T01:30:26.873Z,5.80
2018-08-08T01:31:26.775Z,5.80
2018-08-08T01:32:26.881Z,5.80
2018-08-08T01:33:26.911Z,5.80
2018-08-08T01:34:26.896Z,5.80
2018-08-08T01:35:26.879Z,5.80
2018-08-08T01:36:26.778Z,5.80
2018-08-08T01:37:26.886Z,5.80
2018-08-08T01:38:26.884Z,5.80
2018-08-08T01:39:26.926Z,6.20
2018-08-08T01:40:26.846Z,6.20
2018-08-08T01:41:26.869Z,6.20
2018-08-08T01:42:26.805Z,6.20
2018-08-08T01:43:26.813Z,6.20
2018-08-08T01:44:26.808Z,6.20
2018-08-08T01:45:27.015Z,6.20
2018-08-08T01:46:26.926Z,6.20
2018-08-08T01:47:26.813Z,6.20
2018-08-08T01:48:26.889Z,6.20
2018-08-08T01:49:26.811Z,6.40
2018-08-08T01:50:26.869Z,6.40
2018-08-08T01:51:26.893Z,6.40
2018-08-08T01:52:26.922Z,6.40
2018-08-08T01:53:26.925Z,6.40
2018-08-08T01:54:26.814Z,6.40
2018-08-08T01:55:26.851Z,6.40
2018-08-08T01:56:26.957Z,6.40
2018-08-08T01:57:26.814Z,6.40
2018-08-08T01:58:26.801Z,6.40
2018-08-08T01:59:26.876Z,7.10
2018-08-08T02:00:26.872Z,7.10
2018-08-08T02:01:26.897Z,7.10
2018-08-08T02:02:26.917Z,7.10
2018-08-08T02:03:26.973Z,7.10
2018-08-08T02:04:26.918Z,7.10
2018-08-08T02:05:26.898Z,7.10
2018-08-08T02:06:26.840Z,7.10
2018-08-08T02:07:26.876Z,7.10
2018-08-08T02:08:26.952Z,7.10
2018-08-08T02:09:26.907Z,7.40
2018-08-08T02:10:26.870Z,7.40
2018-08-08T02:11:26.931Z,7.40
2018-08-08T02:12:26.905Z,7.40
2018-08-08T02:13:26.831Z,7.40
2018-08-08T02:14:26.891Z,7.40
2018-08-08T02:15:26.829Z,7.40
2018-08-08T02:16:26.944Z,7.40
2018-08-08T02:17:26.938Z,7.40
2018-08-08T02:18:26.926Z,7.40
2018-08-08T02:19:26.829Z,7.60
2018-08-08T02:20:26.837Z,7.60
2018-08-08T02:21:26.906Z,7.60
2018-08-08T02:22:26.792Z,7.60
2018-08-08T02:23:26.845Z,7.60
2018-08-08T02:24:26.906Z,7.60
2018-08-08T02:25:26.866Z,7.60
2018-08-08T02:26:26.911Z,7.60
2018-08-08T02:27:26.835Z,7.60
2018-08-08T02:28:26.821Z,7.60
2018-08-08T02:29:26.899Z,6.80
2018-08-08T02:30:26.842Z,6.80
2018-08-08T02:31:26.954Z,6.80
2018-08-08T02:32:26.884Z,6.80
2018-08-08T02:33:26.903Z,6.80
2018-08-08T02:34:26.850Z,6.80
2018-08-08T02:35:26.848Z,6.80
2018-08-08T02:36:26.952Z,6.80
2018-08-08T02:37:26.986Z,6.80
2018-08-08T02:38:26.865Z,6.80
2018-08-08T02:39:26.940Z,6.40
2018-08-08T02:40:26.861Z,6.40
2018-08-08T02:41:26.870Z,6.40
2018-08-08T02:42:26.865Z,6.40
2018-08-08T02:43:26.927Z,6.40
2018-08-08T02:44:26.880Z,6.40
2018-08-08T02:45:26.864Z,6.40
2018-08-08T02:46:26.942Z,6.40
2018-08-08T02:47:26.933Z,6.40
2018-08-08T02:48:35.395Z,6.40
2018-08-08T02:49:26.869Z,6.40
2018-08-08T02:50:26.908Z,7.30
2018-08-08T02:51:26.972Z,7.30
2018-08-08T02:52:26.835Z,7.30
2018-08-08T02:53:26.902Z,7.30
2018-08-08T02:54:26.931Z,7.30
2018-08-08T02:55:26.842Z,7.30
2018-08-08T02:56:26.979Z,7.30
2018-08-08T02:57:26.913Z,7.30
2018-08-08T02:58:27.004Z,7.30
2018-08-08T02:59:26.961Z,7.30
2018-08-08T03:00:26.844Z,8.00
2018-08-08T03:01:26.871Z,8.00
2018-08-08T03:02:26.932Z,8.00
2018-08-08T03:03:26.863Z,8.00
2018-08-08T03:04:26.864Z,8.00
2018-08-08T03:05:26.823Z,8.00
2018-08-08T03:06:26.868Z,8.00
2018-08-08T03:07:26.846Z,8.00
2018-08-08T03:08:26.876Z,8.00
2018-08-08T03:09:26.942Z,8.00
2018-08-08T03:10:26.850Z,8.00
2018-08-08T03:11:26.881Z,8.00
2018-08-08T03:12:26.934Z,8.00
2018-08-08T03:13:26.947Z,8.00
2018-08-08T03:14:26.852Z,8.00
2018-08-08T03:15:26.905Z,8.00
2018-08-08T03:16:26.927Z,8.00
2018-08-08T03:17:26.856Z,8.00
2018-08-08T03:18:26.873Z,8.00
2018-08-08T03:19:26.847Z,8.00
2018-08-08T03:20:26.848Z,7.40
2018-08-08T03:21:26.909Z,7.40
2018-08-08T03:22:26.986Z,7.40
2018-08-08T03:23:26.895Z,7.40
2018-08-08T03:24:26.889Z,7.40
2018-08-08T03:25:26.958Z,7.40
2018-08-08T03:26:26.899Z,7.40
2018-08-08T03:27:26.964Z,7.40
2018-08-08T03:28:26.898Z,7.40
2018-08-08T03:29:26.901Z,7.40
2018-08-08T03:30:26.965Z,7.70
2018-08-08T03:31:26.970Z,7.70
2018-08-08T03:32:26.969Z,7.70
2018-08-08T03:33:26.895Z,7.70
2018-08-08T03:34:26.850Z,7.70
2018-08-08T03:35:26.911Z,7.70
2018-08-08T03:36:27.058Z,7.70
2018-08-08T03:37:26.967Z,7.70
2018-08-08T03:38:26.974Z,7.70
2018-08-08T03:39:26.965Z,7.70
2018-08-08T03:40:26.970Z,7.90
2018-08-08T03:41:26.986Z,7.90
2018-08-08T03:42:26.949Z,7.90
2018-08-08T03:43:26.943Z,7.90
2018-08-08T03:44:26.974Z,7.90
2018-08-08T03:45:27.015Z,7.90
2018-08-08T03:46:26.989Z,7.90
2018-08-08T03:47:26.900Z,7.90
2018-08-08T03:48:27.000Z,7.90
2018-08-08T03:49:26.972Z,7.90
2018-08-08T03:50:26.904Z,7.70
2018-08-08T03:51:26.974Z,7.70
2018-08-08T03:52:26.943Z,7.70
2018-08-08T03:53:26.958Z,7.70
2018-08-08T03:54:27.037Z,7.70
2018-08-08T03:55:26.955Z,7.70
2018-08-08T03:56:26.884Z,7.70
2018-08-08T03:57:26.956Z,7.70
2018-08-08T03:58:26.961Z,7.70
2018-08-08T03:59:27.012Z,7.70
2018-08-08T04:00:26.849Z,8.00
2018-08-08T04:01:26.927Z,8.00
2018-08-08T04:02:26.917Z,8.00
2018-08-08T04:03:26.928Z,8.00
2018-08-08T04:04:26.928Z,8.00
2018-08-08T04:05:26.896Z,8.00
2018-08-08T04:06:26.884Z,8.00
2018-08-08T04:07:26.886Z,8.00
2018-08-08T04:08:26.936Z,8.00
2018-08-08T04:09:26.885Z,8.00
2018-08-08T04:10:26.895Z,8.80
2018-08-08T04:11:26.952Z,8.80
2018-08-08T04:12:26.982Z,8.80
2018-08-08T04:13:26.858Z,8.80
2018-08-08T04:14:26.909Z,8.80
2018-08-08T04:15:26.876Z,8.80
2018-08-08T04:16:26.880Z,8.80
2018-08-08T04:17:26.977Z,8.80
2018-08-08T04:18:26.986Z,8.80
2018-08-08T04:19:26.912Z,8.80
2018-08-08T04:20:26.900Z,7.40
2018-08-08T04:21:26.980Z,7.40
2018-08-08T04:22:26.883Z,7.40
2018-08-08T04:23:26.933Z,7.40
2018-08-08T04:24:26.885Z,7.40
2018-08-08T04:25:26.985Z,7.40
2018-08-08T04:26:26.941Z,7.40
2018-08-08T04:27:26.996Z,7.40
2018-08-08T04:28:26.933Z,7.40
2018-08-08T04:29:26.867Z,7.40
2018-08-08T04:30:26.939Z,8.40
2018-08-08T04:31:27.026Z,8.40
2018-08-08T04:32:26.976Z,8.40
2018-08-08T04:33:27.020Z,8.40
2018-08-08T04:34:26.965Z,8.40
2018-08-08T04:35:26.987Z,8.40
2018-08-08T04:36:26.905Z,8.40
2018-08-08T04:37:26.964Z,8.40
2018-08-08T04:38:26.985Z,8.40
2018-08-08T04:39:26.912Z,8.40
2018-08-08T04:40:27.065Z,7.80
2018-08-08T04:41:27.042Z,7.80
2018-08-08T04:42:26.932Z,7.80
2018-08-08T04:43:26.982Z,7.80
2018-08-08T04:44:26.979Z,7.80
2018-08-08T04:45:26.948Z,7.80
2018-08-08T04:46:26.935Z,7.80
2018-08-08T04:47:27.051Z,7.80
2018-08-08T04:48:27.036Z,7.80
2018-08-08T04:49:27.036Z,7.80
2018-08-08T04:50:27.051Z,9.20
2018-08-08T04:51:27.012Z,9.20
2018-08-08T04:52:26.994Z,9.20
2018-08-08T04:53:26.983Z,9.20
2018-08-08T04:54:26.974Z,9.20
2018-08-08T04:55:27.089Z,9.20
2018-08-08T04:56:26.979Z,9.20
2018-08-08T04:57:27.060Z,9.20
2018-08-08T04:58:26.923Z,9.20
2018-08-08T04:59:27.039Z,9.20
2018-08-08T05:00:27.053Z,8.40
2018-08-08T05:01:26.928Z,8.40
2018-08-08T05:02:26.960Z,8.40
2018-08-08T05:03:26.946Z,8.40
2018-08-08T05:04:27.004Z,8.40
2018-08-08T05:05:26.999Z,8.40
2018-08-08T05:06:26.995Z,8.40
2018-08-08T05:07:27.025Z,8.40
2018-08-08T05:08:27.064Z,8.40
2018-08-08T05:09:27.022Z,8.40
2018-08-08T05:10:26.986Z,8.80
2018-08-08T05:11:27.046Z,8.80
2018-08-08T05:12:27.027Z,8.80
2018-08-08T05:13:26.941Z,8.80
2018-08-08T05:14:27.006Z,8.80
2018-08-08T05:15:26.990Z,8.80
2018-08-08T05:16:27.074Z,8.80
2018-08-08T05:17:27.014Z,8.80
2018-08-08T05:18:27.077Z,8.80
2018-08-08T05:19:26.998Z,8.80
2018-08-08T05:20:27.029Z,8.30
2018-08-08T05:21:27.040Z,8.30
2018-08-08T05:22:26.972Z,8.30
2018-08-08T05:23:27.051Z,8.30
2018-08-08T05:24:27.036Z,8.30
2018-08-08T05:25:26.971Z,8.30
2018-08-08T05:26:26.980Z,8.30
2018-08-08T05:27:27.044Z,8.30
2018-08-08T05:28:26.975Z,8.30
2018-08-08T05:29:26.977Z,8.30
2018-08-08T05:30:27.013Z,8.50
2018-08-08T05:31:27.045Z,8.50
2018-08-08T05:32:27.217Z,8.50
2018-08-08T05:33:27.013Z,8.50
2018-08-08T05:34:27.073Z,8.50
2018-08-08T05:35:26.972Z,8.50
2018-08-08T05:36:26.972Z,8.50
2018-08-08T05:37:26.970Z,8.50
2018-08-08T05:38:27.055Z,8.50
2018-08-08T05:39:27.053Z,8.50
2018-08-08T05:40:26.995Z,8.30
2018-08-08T05:41:27.019Z,8.30
2018-08-08T05:42:26.957Z,8.30
2018-08-08T05:43:27.084Z,8.30
2018-08-08T05:44:27.024Z,8.30
2018-08-08T05:45:27.055Z,8.30
2018-08-08T05:46:26.992Z,8.30
2018-08-08T05:47:27.091Z,8.30
2018-08-08T05:48:27.055Z,8.30
2018-08-08T05:49:27.151Z,8.30
2018-08-08T05:50:26.965Z,8.50
2018-08-08T05:51:27.061Z,8.50
2018-08-08T05:52:27.014Z,8.50
2018-08-08T05:53:27.034Z,8.50
2018-08-08T05:54:27.022Z,8.50
2018-08-08T05:55:27.060Z,8.50
2018-08-08T05:56:27.066Z,8.50
2018-08-08T05:57:27.104Z,8.50
2018-08-08T05:58:27.084Z,8.50
2018-08-08T05:59:27.035Z,8.50
2018-08-08T06:00:27.068Z,7.60
2018-08-08T06:01:27.111Z,7.60
2018-08-08T06:02:27.067Z,7.60
2018-08-08T06:03:26.988Z,7.60
2018-08-08T06:04:27.067Z,7.60
2018-08-08T06:05:27.033Z,7.60
2018-08-08T06:06:27.037Z,7.60
2018-08-08T06:07:27.025Z,7.60
2018-08-08T06:08:26.980Z,7.60
2018-08-08T06:09:27.051Z,7.60
2018-08-08T06:10:26.946Z,8.99
2018-08-08T06:11:27.062Z,8.99
2018-08-08T06:12:27.062Z,8.99
2018-08-08T06:13:26.974Z,8.99
2018-08-08T06:14:27.138Z,8.99
2018-08-08T06:15:27.017Z,8.99
2018-08-08T06:16:27.026Z,8.99
2018-08-08T06:17:27.066Z,8.99
2018-08-08T06:18:27.098Z,8.99
2018-08-08T06:19:26.984Z,8.99
2018-08-08T06:20:26.961Z,7.30
2018-08-08T06:21:27.081Z,7.30
2018-08-08T06:22:27.082Z,7.30
2018-08-08T06:23:27.013Z,7.30
2018-08-08T06:24:27.042Z,7.30
2018-08-08T06:25:27.014Z,7.30
2018-08-08T06:26:27.082Z,7.30
2018-08-08T06:27:27.032Z,7.30
2018-08-08T06:28:27.082Z,7.30
2018-08-08T06:29:27.088Z,7.30
2018-08-08T06:30:27.132Z,8.90
2018-08-08T06:31:27.017Z,8.90
2018-08-08T06:32:27.091Z,8.90
2018-08-08T06:33:27.023Z,8.90
2018-08-08T06:34:27.103Z,8.90
2018-08-08T06:35:27.025Z,8.90
2018-08-08T06:36:27.094Z,8.90
2018-08-08T06:37:27.031Z,8.90
2018-08-08T06:38:27.096Z,8.90
2018-08-08T06:39:27.100Z,8.90
2018-08-08T06:40:27.026Z,7.10
2018-08-08T06:41:27.094Z,7.10
2018-08-08T06:42:27.107Z,7.10
2018-08-08T06:43:27.094Z,7.10
2018-08-08T06:44:27.100Z,7.10
2018-08-08T06:45:27.084Z,7.10
2018-08-08T06:46:27.102Z,7.10
2018-08-08T06:47:27.070Z,7.10
2018-08-08T06:48:27.096Z,7.10
2018-08-08T06:49:27.035Z,7.10
2018-08-08T06:50:27.074Z,6.40
2018-08-08T06:51:27.105Z,6.40
2018-08-08T06:52:27.074Z,6.40
2018-08-08T06:53:27.079Z,6.40
2018-08-08T06:54:27.106Z,6.40
2018-08-08T06:55:27.082Z,6.40
2018-08-08T06:56:27.132Z,6.40
2018-08-08T06:57:27.008Z,6.40
2018-08-08T06:58:27.074Z,6.40
2018-08-08T06:59:27.064Z,6.40
2018-08-08T07:00:27.041Z,4.80
2018-08-08T07:01:27.108Z,4.80
2018-08-08T07:02:27.108Z,4.80
2018-08-08T07:03:27.108Z,4.80
2018-08-08T07:04:27.042Z,4.80
2018-08-08T07:05:27.138Z,4.80
2018-08-08T07:06:27.043Z,4.80
2018-08-08T07:07:27.118Z,4.80
2018-08-08T07:08:27.048Z,4.80
2018-08-08T07:09:27.110Z,4.80
2018-08-08T07:10:27.145Z,5.40
2018-08-08T07:11:27.113Z,5.40
2018-08-08T07:12:27.017Z,5.40
2018-08-08T07:13:27.141Z,5.40
2018-08-08T07:14:27.148Z,5.40
2018-08-08T07:15:27.099Z,5.40
2018-08-08T07:16:27.114Z,5.40
2018-08-08T07:17:27.144Z,5.40
2018-08-08T07:18:27.138Z,5.40
2018-08-08T07:19:27.118Z,5.40
2018-08-08T07:20:27.056Z,4.40
2018-08-08T07:21:27.058Z,4.40
2018-08-08T07:22:27.124Z,4.40
2018-08-08T07:23:27.126Z,4.40
2018-08-08T07:24:27.055Z,4.40
2018-08-08T07:25:27.125Z,4.40
2018-08-08T07:26:27.126Z,4.40
2018-08-08T07:27:27.060Z,4.40
2018-08-08T07:28:27.137Z,4.40
2018-08-08T07:29:27.062Z,4.40
2018-08-08T07:30:27.128Z,4.50
2018-08-08T07:31:27.065Z,4.50
2018-08-08T07:32:27.131Z,4.50
2018-08-08T07:33:27.063Z,4.50
2018-08-08T07:34:27.130Z,4.50
2018-08-08T07:35:27.125Z,4.50
2018-08-08T07:36:27.067Z,4.50
2018-08-08T07:37:27.134Z,4.50
2018-08-08T07:38:27.133Z,4.50
2018-08-08T07:39:27.135Z,4.50
2018-08-08T07:40:27.110Z,4.80
2018-08-08T07:41:27.134Z,4.80
2018-08-08T07:42:27.066Z,4.80
2018-08-08T07:43:27.137Z,4.80
2018-08-08T07:44:27.138Z,4.80
2018-08-08T07:45:27.075Z,4.80
2018-08-08T07:46:27.075Z,4.80
2018-08-08T07:47:27.075Z,4.80
2018-08-08T07:48:27.140Z,4.80
2018-08-08T07:49:27.075Z,4.80
2018-08-08T07:50:27.096Z,4.00
2018-08-08T07:51:27.130Z,4.00
2018-08-08T07:52:27.143Z,4.00
2018-08-08T07:53:27.017Z,4.00
2018-08-08T07:54:27.137Z,4.00
2018-08-08T07:55:27.069Z,4.00
2018-08-08T07:56:27.019Z,4.00
2018-08-08T07:57:27.145Z,4.00
2018-08-08T07:58:27.111Z,4.00
2018-08-08T07:59:27.028Z,4.00
2018-08-08T08:00:27.150Z,4.50
2018-08-08T08:01:27.120Z,4.50
2018-08-08T08:02:27.080Z,4.50
2018-08-08T08:03:27.149Z,4.50
2018-08-08T08:04:27.089Z,4.50
2018-08-08T08:05:27.155Z,4.50
2018-08-08T08:06:27.153Z,4.50
2018-08-08T08:07:27.089Z,4.50
2018-08-08T08:08:27.090Z,4.50
2018-08-08T08:09:27.161Z,4.50
2018-08-08T08:10:27.001Z,4.00
2018-08-08T08:11:27.016Z,4.00
2018-08-08T08:12:27.101Z,4.00
2018-08-08T08:13:27.105Z,4.00
2018-08-08T08:14:27.063Z,4.00
2018-08-08T08:15:27.015Z,4.00
2018-08-08T08:16:27.060Z,4.00
2018-08-08T08:17:27.061Z,4.00
2018-08-08T08:18:27.108Z,4.00
2018-08-08T08:19:27.068Z,4.00
2018-08-08T08:20:27.164Z,4.30
2018-08-08T08:21:27.189Z,4.30
2018-08-08T08:22:27.166Z,4.30
2018-08-08T08:23:27.165Z,4.30
2018-08-08T08:24:27.167Z,4.30
2018-08-08T08:25:27.098Z,4.30
2018-08-08T08:26:27.169Z,4.30
2018-08-08T08:27:27.169Z,4.30
2018-08-08T08:28:27.170Z,4.30
2018-08-08T08:29:27.101Z,4.30
2018-08-08T08:30:27.107Z,4.30
2018-08-08T08:31:27.144Z,5.20
2018-08-08T08:32:27.111Z,5.20
2018-08-08T08:33:27.197Z,5.20
2018-08-08T08:34:27.079Z,5.20
2018-08-08T08:35:27.206Z,5.20
2018-08-08T08:36:27.203Z,5.20
2018-08-08T08:37:27.136Z,5.20
2018-08-08T08:38:27.247Z,5.20
2018-08-08T08:39:27.148Z,5.20
2018-08-08T08:40:27.180Z,5.20
2018-08-08T08:41:27.194Z,4.90
2018-08-08T08:42:27.178Z,4.90
2018-08-08T08:43:27.142Z,4.90
2018-08-08T08:44:27.190Z,4.90
2018-08-08T08:45:27.142Z,4.90
2018-08-08T08:46:27.182Z,4.90
2018-08-08T08:47:27.143Z,4.90
2018-08-08T08:48:27.181Z,4.90
2018-08-08T08:49:27.219Z,4.90
2018-08-08T08:50:27.269Z,4.90
2018-08-08T08:51:27.234Z,4.30
2018-08-08T08:52:27.080Z,4.30
2018-08-08T08:53:27.186Z,4.30
2018-08-08T08:54:27.151Z,4.30
2018-08-08T08:55:27.214Z,4.30
2018-08-08T08:56:27.156Z,4.30
2018-08-08T08:57:27.146Z,4.30
2018-08-08T08:58:27.149Z,4.30
2018-08-08T08:59:27.189Z,4.30
2018-08-08T09:00:27.186Z,4.30
2018-08-08T09:01:27.100Z,4.50
2018-08-08T09:02:27.259Z,4.50
2018-08-08T09:03:27.227Z,4.50
2018-08-08T09:04:27.091Z,4.50
2018-08-08T09:05:27.169Z,4.50
2018-08-08T09:06:27.170Z,4.50
2018-08-08T09:07:27.232Z,4.50
2018-08-08T09:08:27.174Z,4.50
2018-08-08T09:09:27.155Z,4.50
2018-08-08T09:10:27.212Z,4.50
2018-08-08T09:11:27.128Z,5.00
2018-08-08T09:12:27.130Z,5.00
2018-08-08T09:13:27.093Z,5.00
2018-08-08T09:14:27.088Z,5.00
2018-08-08T09:15:27.188Z,5.00
2018-08-08T09:16:27.096Z,5.00
2018-08-08T09:17:27.191Z,5.00
2018-08-08T09:18:27.154Z,5.00
2018-08-08T09:19:27.126Z,5.00
2018-08-08T09:20:27.137Z,5.00
2018-08-08T09:21:27.144Z,5.00
2018-08-08T09:22:27.132Z,5.00
2018-08-08T09:23:27.096Z,5.00
2018-08-08T09:24:27.173Z,5.00
2018-08-08T09:25:27.144Z,5.00
2018-08-08T09:26:27.145Z,5.00
2018-08-08T09:27:27.099Z,5.00
2018-08-08T09:28:27.112Z,5.00
2018-08-08T09:29:27.195Z,5.00
2018-08-08T09:30:27.155Z,5.00
2018-08-08T09:31:27.233Z,4.99
2018-08-08T09:32:27.190Z,4.99
2018-08-08T09:33:27.150Z,4.99
2018-08-08T09:34:27.173Z,4.99
2018-08-08T09:35:27.114Z,4.99
2018-08-08T09:36:27.162Z,4.99
2018-08-08T09:37:27.216Z,4.99
2018-08-08T09:38:27.126Z,4.99
2018-08-08T09:39:27.253Z,4.99
2018-08-08T09:40:27.219Z,4.99
2018-08-08T09:41:27.158Z,4.30
2018-08-08T09:42:27.199Z,4.30
2018-08-08T09:43:27.182Z,4.30
2018-08-08T09:44:27.181Z,4.30
2018-08-08T09:45:27.219Z,4.30
2018-08-08T09:46:27.185Z,4.30
2018-08-08T09:47:27.224Z,4.30
2018-08-08T09:48:27.184Z,4.30
2018-08-08T09:49:27.248Z,4.30
2018-08-08T09:50:27.250Z,4.30
2018-08-08T09:51:27.228Z,5.99
2018-08-08T09:52:27.225Z,5.99
2018-08-08T09:53:27.161Z,5.99
2018-08-08T09:54:27.228Z,5.99
2018-08-08T09:55:27.163Z,5.99
2018-08-08T09:56:27.184Z,5.99
2018-08-08T09:57:27.234Z,5.99
2018-08-08T09:58:27.231Z,5.99
2018-08-08T09:59:27.160Z,5.99
2018-08-08T10:00:27.239Z,5.99
2018-08-08T10:01:27.255Z,3.70
2018-08-08T10:02:27.153Z,3.70
2018-08-08T10:03:27.210Z,3.70
2018-08-08T10:04:27.154Z,3.70
2018-08-08T10:05:27.201Z,3.70
2018-08-08T10:06:27.267Z,3.70
2018-08-08T10:07:27.264Z,3.70
2018-08-08T10:08:27.273Z,3.70
2018-08-08T10:09:27.289Z,3.70
2018-08-08T10:10:27.240Z,3.70
2018-08-08T10:11:27.242Z,4.40
2018-08-08T10:12:27.210Z,4.40
2018-08-08T10:13:27.241Z,4.40
2018-08-08T10:14:27.246Z,4.40
2018-08-08T10:15:27.273Z,4.40
2018-08-08T10:16:27.279Z,4.40
2018-08-08T10:17:27.177Z,4.40
2018-08-08T10:18:27.247Z,4.40
2018-08-08T10:19:27.246Z,4.40
2018-08-08T10:20:27.245Z,4.40
2018-08-08T10:21:27.181Z,4.99
2018-08-08T10:22:27.201Z,4.99
2018-08-08T10:23:27.253Z,4.99
2018-08-08T10:24:27.248Z,4.99
2018-08-08T10:25:27.185Z,4.99
2018-08-08T10:26:27.252Z,4.99
2018-08-08T10:27:27.187Z,4.99
2018-08-08T10:28:27.250Z,4.99
2018-08-08T10:29:27.191Z,4.99
2018-08-08T10:30:27.250Z,4.99
2018-08-08T10:31:27.145Z,4.00
2018-08-08T10:32:27.127Z,4.00
2018-08-08T10:33:27.205Z,4.00
2018-08-08T10:34:27.142Z,4.00
2018-08-08T10:35:27.248Z,4.00
2018-08-08T10:36:27.201Z,4.00
2018-08-08T10:37:27.251Z,4.00
2018-08-08T10:38:27.244Z,4.00
2018-08-08T10:39:27.139Z,4.00
2018-08-08T10:40:27.167Z,4.00
2018-08-08T10:41:27.297Z,3.30
2018-08-08T10:42:27.218Z,3.30
2018-08-08T10:43:27.234Z,3.30
2018-08-08T10:44:27.244Z,3.30
2018-08-08T10:45:27.282Z,3.30
2018-08-08T10:46:27.243Z,3.30
2018-08-08T10:47:27.234Z,3.30
2018-08-08T10:48:27.232Z,3.30
2018-08-08T10:49:27.303Z,3.30
2018-08-08T10:50:27.171Z,3.30
2018-08-08T10:51:27.263Z,3.80
2018-08-08T10:52:27.245Z,3.80
2018-08-08T10:53:27.259Z,3.80
2018-08-08T10:54:27.305Z,3.80
2018-08-08T10:55:27.317Z,3.80
2018-08-08T10:56:27.273Z,3.80
2018-08-08T10:57:27.252Z,3.80
2018-08-08T10:58:27.245Z,3.80
2018-08-08T10:59:27.344Z,3.80
2018-08-08T11:00:27.206Z,3.80
2018-08-08T11:01:27.257Z,3.20
2018-08-08T11:02:27.208Z,3.20
2018-08-08T11:03:27.235Z,3.20
2018-08-08T11:04:27.270Z,3.20
2018-08-08T11:05:27.229Z,3.20
2018-08-08T11:06:27.213Z,3.20
2018-08-08T11:07:27.267Z,3.20
2018-08-08T11:08:27.184Z,3.20
2018-08-08T11:09:27.238Z,3.20
2018-08-08T11:10:27.191Z,3.20
2018-08-08T11:11:27.250Z,3.80
2018-08-08T11:12:27.188Z,3.80
2018-08-08T11:13:27.282Z,3.80
2018-08-08T11:14:27.309Z,3.80
2018-08-08T11:15:27.283Z,3.80
2018-08-08T11:16:27.230Z,3.80
2018-08-08T11:17:27.253Z,3.80
2018-08-08T11:18:27.238Z,3.80
2018-08-08T11:19:27.195Z,3.80
2018-08-08T11:20:27.260Z,3.80
2018-08-08T11:21:27.290Z,2.40
2018-08-08T11:22:27.220Z,2.40
2018-08-08T11:23:27.224Z,2.40
2018-08-08T11:24:27.245Z,2.40
2018-08-08T11:25:27.231Z,2.40
2018-08-08T11:26:27.229Z,2.40
2018-08-08T11:27:27.224Z,2.40
2018-08-08T11:28:27.227Z,2.40
2018-08-08T11:29:27.263Z,2.40
2018-08-08T11:30:27.330Z,2.40
2018-08-08T11:31:27.229Z,2.70
2018-08-08T11:32:27.297Z,2.70
2018-08-08T11:33:27.229Z,2.70
2018-08-08T11:34:27.303Z,2.70
2018-08-08T11:35:27.387Z,2.70
2018-08-08T11:36:27.297Z,2.70
2018-08-08T11:37:27.234Z,2.70
2018-08-08T11:38:27.301Z,2.70
2018-08-08T11:39:27.300Z,2.70
2018-08-08T11:40:27.241Z,2.70
2018-08-08T11:41:27.257Z,2.60
2018-08-08T11:42:27.257Z,2.60
2018-08-08T11:43:27.225Z,2.60
2018-08-08T11:44:27.257Z,2.60
2018-08-08T11:45:27.322Z,2.60
2018-08-08T11:46:27.403Z,2.60
2018-08-08T11:47:27.284Z,2.60
2018-08-08T11:48:27.213Z,2.60
2018-08-08T11:49:27.281Z,2.60
2018-08-08T11:50:27.337Z,2.60
2018-08-08T11:51:27.241Z,3.50
2018-08-08T11:52:27.193Z,3.50
2018-08-08T11:53:27.308Z,3.50
2018-08-08T11:54:27.245Z,3.50
2018-08-08T11:55:27.241Z,3.50
2018-08-08T11:56:27.310Z,3.50
2018-08-08T11:57:27.326Z,3.50
2018-08-08T11:58:27.251Z,3.50
2018-08-08T11:59:27.313Z,3.50
2018-08-08T12:00:27.247Z,3.50
2018-08-08T12:01:27.253Z,3.00
2018-08-08T12:02:27.251Z,3.00
2018-08-08T12:03:27.319Z,3.00
2018-08-08T12:04:27.322Z,3.00
2018-08-08T12:05:27.250Z,3.00
2018-08-08T12:06:27.278Z,3.00
2018-08-08T12:07:27.253Z,3.00
2018-08-08T12:08:27.321Z,3.00
2018-08-08T12:09:27.256Z,3.00
2018-08-08T12:10:27.256Z,3.00
2018-08-08T12:11:27.192Z,3.00
2018-08-08T12:12:27.316Z,3.00
2018-08-08T12:13:27.275Z,3.00
2018-08-08T12:14:27.317Z,3.00
2018-08-08T12:15:27.317Z,3.00
2018-08-08T12:16:27.261Z,3.00
2018-08-08T12:17:27.232Z,3.00
2018-08-08T12:18:27.267Z,3.00
2018-08-08T12:19:27.229Z,3.00
2018-08-08T12:20:27.279Z,3.00
2018-08-08T12:21:27.252Z,2.80
2018-08-08T12:22:27.300Z,2.80
2018-08-08T12:23:27.345Z,2.80
2018-08-08T12:24:27.290Z,2.80
2018-08-08T12:25:27.270Z,2.80
2018-08-08T12:26:27.312Z,2.80
2018-08-08T12:27:27.372Z,2.80
2018-08-08T12:28:27.338Z,2.80
2018-08-08T12:29:27.333Z,2.80
2018-08-08T12:30:27.373Z,2.80
2018-08-08T12:31:27.375Z,3.99
2018-08-08T12:32:27.336Z,3.99
2018-08-08T12:33:27.278Z,3.99
2018-08-08T12:34:27.401Z,3.99
2018-08-08T12:35:27.363Z,3.99
2018-08-08T12:36:27.272Z,3.99
2018-08-08T12:37:27.275Z,3.99
2018-08-08T12:38:27.342Z,3.99
2018-08-08T12:39:27.354Z,3.99
2018-08-08T12:40:27.378Z,3.99
2018-08-08T12:41:27.381Z,3.50
2018-08-08T12:42:27.344Z,3.50
2018-08-08T12:43:27.359Z,3.50
2018-08-08T12:44:27.264Z,3.50
2018-08-08T12:45:27.344Z,3.50
2018-08-08T12:46:27.315Z,3.50
2018-08-08T12:47:27.346Z,3.50
2018-08-08T12:48:27.245Z,3.50
2018-08-08T12:49:27.422Z,3.50
2018-08-08T12:50:27.289Z,3.50
2018-08-08T12:51:27.222Z,3.00
2018-08-08T12:52:27.393Z,3.00
2018-08-08T12:53:27.302Z,3.00
2018-08-08T12:54:27.341Z,3.00
2018-08-08T12:55:27.343Z,3.00
2018-08-08T12:56:27.298Z,3.00
2018-08-08T12:57:27.276Z,3.00
2018-08-08T12:58:27.221Z,3.00
2018-08-08T12:59:27.284Z,3.00
2018-08-08T13:00:27.343Z,3.00
2018-08-08T13:01:27.284Z,3.20
2018-08-08T13:02:27.388Z,3.20
2018-08-08T13:03:27.387Z,3.20
2018-08-08T13:04:27.390Z,3.20
2018-08-08T13:05:27.281Z,3.20
2018-08-08T13:06:27.358Z,3.20
2018-08-08T13:07:27.395Z,3.20
2018-08-08T13:08:27.365Z,3.20
2018-08-08T13:09:27.285Z,3.20
2018-08-08T13:10:27.264Z,3.20
2018-08-08T13:11:27.314Z,3.00
2018-08-08T13:12:27.314Z,3.00
2018-08-08T13:13:27.357Z,3.00
2018-08-08T13:14:27.348Z,3.00
2018-08-08T13:15:27.319Z,3.00
2018-08-08T13:16:27.257Z,3.00
2018-08-08T13:17:27.238Z,3.00
2018-08-08T13:18:27.360Z,3.00